Time;durP1;ratioP1;P1;durP2;ratioP2;P2;SDS_P1;SDS_P2;PMS_P1;PMS_P2;Temp;Humidity;BMP_temperature;BMP_pressure;BME280_temperature;BME280_humidity;BME280_pressure;Samples;Min_cycle;Max_cycle;Signal;HPM_P1;HPM_P2
2023/07/21 00:00:42;;;;;;;11.35;8.45;;;;;;;25.12;74.49;99614.34;5106608;28;20306;-23
2023/07/21 00:03:08;;;;;;;11.18;8.20;;;;;;;25.27;73.73;99615.75;5107176;28;20027;-27
2023/07/21 00:05:34;;;;;;;20.27;8.60;;;;;;;25.12;74.23;99619.81;5106795;28;20273;-24
2023/07/21 00:07:59;;;;;;;12.93;8.15;;;;;;;24.77;75.88;99616.41;5106629;28;20027;-25
2023/07/21 00:10:27;;;;;;;13.00;8.65;;;;;;;25.16;73.25;99607.09;5106912;28;20091;-24
2023/07/21 00:12:53;;;;;;;;;;;;;;;24.51;76.29;99605.53;5106942;28;20046;-24
2023/07/21 00:15:19;;;;;;;15.52;8.82;;;;;;;24.59;76.02;99602.00;5106721;28;19908;-22
2023/07/21 00:17:48;;;;;;;18.13;9.20;;;;;;;24.89;74.70;99610.25;5106392;27;20032;-26
2023/07/21 00:20:19;;;;;;;16.75;9.45;;;;;;;24.90;74.80;99595.50;5106746;28;20020;-23
2023/07/21 00:22:46;;;;;;;16.05;9.05;;;;;;;24.75;75.23;99607.75;5106413;28;20389;-24
2023/07/21 00:25:14;;;;;;;14.80;9.02;;;;;;;24.47;77.15;99608.06;5106057;28;20565;-24
2023/07/21 00:27:42;;;;;;;14.63;10.13;;;;;;;24.78;74.41;99609.81;5105843;28;20031;-23
2023/07/21 00:30:07;;;;;;;15.07;9.35;;;;;;;25.09;72.82;99604.09;5106395;28;20028;-24
2023/07/21 00:32:37;;;;;;;16.63;10.05;;;;;;;25.10;72.79;99605.69;5106322;28;20080;-24
2023/07/21 00:35:10;;;;;;;14.00;9.82;;;;;;;24.59;74.82;99602.78;5106406;28;20052;-24
2023/07/21 00:37:36;;;;;;;18.27;9.93;;;;;;;24.16;77.20;99608.28;5106493;28;20039;-24
2023/07/21 00:40:05;;;;;;;12.90;9.27;;;;;;;24.12;77.50;99610.03;5106202;28;20111;-24
2023/07/21 00:42:34;;;;;;;13.50;9.02;;;;;;;24.02;78.26;99611.94;5106332;27;20031;-23
2023/07/21 00:45:02;;;;;;;13.68;9.20;;;;;;;23.64;79.60;99609.78;5105744;28;20015;-23
2023/07/21 00:47:29;;;;;;;13.48;9.82;;;;;;;23.57;80.17;99612.16;5106136;27;20020;-23
2023/07/21 00:49:56;;;;;;;11.77;9.73;;;;;;;23.58;80.60;99611.06;5105995;28;20071;-25
2023/07/21 00:52:23;;;;;;;13.83;9.87;;;;;;;23.42;81.23;99602.53;5106189;27;20431;-24
2023/07/21 00:54:52;;;;;;;14.48;10.00;;;;;;;23.18;82.24;99605.66;5105757;28;20028;-23
2023/07/21 00:57:21;;;;;;;14.40;10.13;;;;;;;23.34;81.24;99607.97;5105562;28;20709;-23
2023/07/21 00:59:47;;;;;;;12.40;9.63;;;;;;;23.59;79.99;99599.03;5105243;27;20138;-26
2023/07/21 01:02:12;;;;;;;16.88;9.27;;;;;;;23.37;81.20;99601.88;5105852;28;20030;-23
2023/07/21 01:04:39;;;;;;;13.75;9.52;;;;;;;23.69;79.06;99608.03;5105846;28;20062;-23
2023/07/21 01:07:11;;;;;;;13.65;9.95;;;;;;;23.73;78.08;99603.56;5105640;28;20478;-23
2023/07/21 01:09:39;;;;;;;14.00;10.52;;;;;;;23.81;77.56;99597.34;5105695;28;20103;-23
2023/07/21 01:12:06;;;;;;;14.70;9.90;;;;;;;23.73;77.76;99598.13;5106136;28;20024;-24
2023/07/21 01:14:33;;;;;;;13.02;10.05;;;;;;;23.58;79.25;99596.63;5105249;28;20157;-23
2023/07/21 01:17:00;;;;;;;16.33;10.77;;;;;;;23.79;77.17;99597.66;5105434;28;20032;-23
2023/07/21 01:19:28;;;;;;;13.10;9.50;;;;;;;23.04;80.77;99588.63;5105209;28;20027;-23
2023/07/21 01:22:03;;;;;;;15.80;10.32;;;;;;;23.35;79.30;99579.63;5105510;28;20051;-23
2023/07/21 01:24:55;;;;;;;15.30;10.85;;;;;;;23.33;80.29;99600.91;5105185;28;20106;-25
2023/07/21 01:27:24;;;;;;;14.98;11.43;;;;;;;23.32;80.96;99594.66;5099502;28;20043;-24
2023/07/21 01:29:52;;;;;;;13.38;10.82;;;;;;;23.07;81.97;99590.75;5105284;28;20020;-24
2023/07/21 01:32:21;;;;;;;15.23;10.65;;;;;;;23.09;82.43;99582.25;5105147;27;20025;-24
2023/07/21 01:34:49;;;;;;;17.63;11.25;;;;;;;23.11;82.99;99599.88;5105129;28;20577;-29
2023/07/21 01:37:16;;;;;;;13.82;9.77;;;;;;;23.16;82.62;99598.94;5105310;28;20027;-24
2023/07/21 01:39:41;;;;;;;14.70;10.30;;;;;;;23.10;82.90;99609.13;5104151;28;20130;-24
2023/07/21 01:42:08;;;;;;;16.98;9.88;;;;;;;23.36;82.25;99603.78;5105345;28;20107;-23
2023/07/21 01:44:34;;;;;;;12.63;9.35;;;;;;;23.49;81.57;99604.78;5104899;28;20031;-24
2023/07/21 01:46:59;;;;;;;15.90;10.00;;;;;;;23.42;82.27;99604.47;5104785;28;20393;-24
2023/07/21 01:49:25;;;;;;;13.18;9.98;;;;;;;23.47;81.59;99602.38;5105160;28;20511;-23
2023/07/21 01:51:55;;;;;;;13.60;9.15;;;;;;;23.31;82.78;99600.41;5104658;27;20080;-24
2023/07/21 01:54:42;;;;;;;12.05;9.13;;;;;;;23.24;82.46;99598.16;5105150;28;20031;-24
2023/07/21 01:57:13;;;;;;;14.57;9.48;;;;;;;22.87;85.20;99613.81;5104904;28;20118;-23
2023/07/21 01:59:43;;;;;;;14.07;9.38;;;;;;;22.72;85.78;99625.88;5104783;28;20077;-23
2023/07/21 02:02:10;;;;;;;15.68;9.65;;;;;;;23.00;84.30;99622.97;5104743;28;20035;-23
2023/07/21 02:04:38;;;;;;;16.05;10.30;;;;;;;23.58;81.05;99623.84;5104926;28;20067;-23
2023/07/21 02:07:04;;;;;;;17.08;11.00;;;;;;;23.72;80.26;99629.16;5104775;28;20030;-23
2023/07/21 02:09:30;;;;;;;14.77;10.20;;;;;;;23.45;81.34;99642.69;5104698;28;20024;-24
2023/07/21 02:11:55;;;;;;;15.15;10.00;;;;;;;23.59;80.36;99641.81;5104643;28;20653;-23
2023/07/21 02:14:22;;;;;;;19.10;10.82;;;;;;;23.46;80.11;99638.09;5104387;28;20031;-23
2023/07/21 02:16:47;;;;;;;18.38;11.40;;;;;;;23.17;81.58;99641.31;5104525;28;20028;-24
2023/07/21 02:19:13;;;;;;;19.08;13.15;;;;;;;23.49;80.21;99642.88;5104221;28;20030;-24
2023/07/21 02:21:38;;;;;;;19.88;11.98;;;;;;;23.15;81.99;99632.66;5104788;28;20016;-23
2023/07/21 02:24:04;;;;;;;15.50;11.20;;;;;;;23.18;81.92;99638.28;5104572;28;20031;-24
2023/07/21 02:26:29;;;;;;;13.77;9.23;;;;;;;23.19;82.51;99642.63;5104328;28;20034;-23
2023/07/21 02:28:55;;;;;;;15.25;9.68;;;;;;;23.15;83.06;99644.38;5104443;28;20023;-24
2023/07/21 02:31:21;;;;;;;17.67;11.10;;;;;;;23.38;82.04;99647.81;5104536;28;20978;-24
2023/07/21 02:33:47;;;;;;;16.38;10.77;;;;;;;23.11;83.53;99642.56;5104601;28;20028;-23
2023/07/21 02:36:13;;;;;;;19.25;10.60;;;;;;;22.95;84.83;99637.53;5104357;28;20027;-23
2023/07/21 02:38:39;;;;;;;16.17;10.18;;;;;;;23.21;83.13;99651.28;5104582;28;20408;-26
2023/07/21 02:41:05;;;;;;;15.38;9.43;;;;;;;23.38;81.25;99649.75;5104129;28;20496;-22
2023/07/21 02:43:32;;;;;;;17.70;10.73;;;;;;;23.28;81.35;99650.81;5104772;28;20016;-22
2023/07/21 02:45:58;;;;;;;18.40;12.37;;;;;;;23.45;80.35;99650.06;5104157;28;20035;-23
2023/07/21 02:48:24;;;;;;;24.13;11.43;;;;;;;23.10;81.77;99647.22;5104405;28;20281;-22
2023/07/21 02:50:52;;;;;;;31.23;13.13;;;;;;;22.91;82.68;99652.06;5105061;28;20408;-22
2023/07/21 02:53:19;;;;;;;30.77;12.52;;;;;;;22.96;82.66;99646.47;5108241;28;20032;-23
2023/07/21 02:55:46;;;;;;;23.65;12.25;;;;;;;22.86;83.64;99656.50;5108394;28;20563;-22
2023/07/21 02:58:16;;;;;;;26.42;12.63;;;;;;;22.82;83.93;99657.41;5108496;28;20027;-26
2023/07/21 03:00:41;;;;;;;22.65;12.88;;;;;;;23.04;83.19;99657.41;5107872;28;20116;-22
2023/07/21 03:03:09;;;;;;;20.98;12.75;;;;;;;22.86;83.99;99648.34;5108364;28;20027;-23
2023/07/21 03:05:35;;;;;;;23.92;11.57;;;;;;;23.02;82.89;99658.84;5108073;28;20043;-22
2023/07/21 03:08:02;;;;;;;20.63;12.40;;;;;;;23.18;81.77;99664.69;5108168;28;20512;-24
2023/07/21 03:10:27;;;;;;;18.73;11.43;;;;;;;23.21;80.99;99666.78;5106648;28;20413;-21
2023/07/21 03:12:53;;;;;;;18.63;11.40;;;;;;;22.96;82.25;99669.00;5107461;28;20045;-22
2023/07/21 03:15:18;;;;;;;19.15;12.00;;;;;;;22.66;83.79;99670.59;5108055;28;20106;-23
2023/07/21 03:17:44;;;;;;;19.27;10.38;;;;;;;22.37;85.81;99671.84;5107672;28;20031;-23
2023/07/21 03:20:15;;;;;;;26.05;15.20;;;;;;;22.74;83.33;99667.16;5107939;28;20122;-23
2023/07/21 03:22:43;;;;;;;23.50;15.32;;;;;;;22.86;83.47;99670.09;5107460;28;20016;-23
2023/07/21 03:25:10;;;;;;;26.70;15.10;;;;;;;22.99;82.47;99673.06;5107964;28;20027;-24
2023/07/21 03:27:38;;;;;;;28.48;16.88;;;;;;;22.90;82.85;99680.34;5107284;28;20057;-23
2023/07/21 03:30:04;;;;;;;23.05;15.77;;;;;;;23.13;81.50;99679.25;5107492;28;20032;-22
2023/07/21 03:32:29;;;;;;;26.63;16.95;;;;;;;22.83;82.53;99683.50;5107507;28;20039;-22
2023/07/21 03:34:55;;;;;;;25.23;16.77;;;;;;;23.10;81.75;99690.72;5107729;28;20016;-22
2023/07/21 03:37:27;;;;;;;33.33;21.10;;;;;;;22.95;82.50;99693.81;5107458;27;20027;-24
2023/07/21 03:39:53;;;;;;;31.85;21.58;;;;;;;22.87;82.45;99695.38;5107367;28;20016;-25
2023/07/21 03:42:18;;;;;;;32.30;20.67;;;;;;;23.02;80.65;99694.19;5107038;28;20028;-25
2023/07/21 03:44:52;;;;;;;20.88;12.65;;;;;;;22.93;80.38;99696.06;5107058;28;20024;-25
2023/07/21 03:47:19;;;;;;;15.88;12.02;;;;;;;22.58;82.86;99696.59;5107075;28;20023;-24
2023/07/21 03:49:47;;;;;;;64.78;57.67;;;;;;;22.75;83.08;99690.47;5107217;28;20512;-24
2023/07/21 03:52:13;;;;;;;39.30;32.85;;;;;;;23.03;81.73;99701.25;5107089;28;20035;-24
2023/07/21 03:54:38;;;;;;;15.77;10.18;;;;;;;22.98;81.78;99704.06;5107308;28;20028;-24
2023/07/21 03:57:04;;;;;;;17.52;11.38;;;;;;;22.82;81.84;99715.34;5107235;28;20019;-25
2023/07/21 03:59:30;;;;;;;23.65;14.05;;;;;;;22.64;83.54;99705.44;5106991;28;20039;-23
2023/07/21 04:01:56;;;;;;;55.65;41.38;;;;;;;22.90;82.24;99702.88;5106466;28;20032;-23
2023/07/21 04:04:21;;;;;;;50.72;41.00;;;;;;;22.94;80.89;99703.88;5106537;28;20062;-23
2023/07/21 04:06:47;;;;;;;59.45;46.60;;;;;;;22.92;81.08;99708.03;5106888;28;20483;-23
2023/07/21 04:09:13;;;;;;;57.13;45.38;;;;;;;23.00;80.92;99712.72;5106866;28;20483;-26
2023/07/21 04:11:42;;;;;;;53.97;41.47;;;;;;;23.17;80.23;99718.31;5107095;28;20031;-23
2023/07/21 04:14:08;;;;;;;44.75;32.95;;;;;;;23.22;80.25;99715.44;5106747;28;20099;-23
2023/07/21 04:16:34;;;;;;;42.17;30.65;;;;;;;23.49;79.25;99713.63;5106496;27;20027;-24
2023/07/21 04:19:03;;;;;;;30.08;21.52;;;;;;;23.64;77.62;99720.59;5106550;28;20027;-24
2023/07/21 04:21:28;;;;;;;27.50;18.40;;;;;;;23.39;78.48;99732.97;5106518;28;20523;-24
2023/07/21 04:23:53;;;;;;;33.28;23.35;;;;;;;23.52;79.71;99723.09;5106119;28;20020;-24
2023/07/21 04:26:19;;;;;;;46.30;32.95;;;;;;;23.53;79.98;99730.94;5106170;28;20043;-23
2023/07/21 04:28:47;;;;;;;44.45;33.03;;;;;;;23.57;79.89;99737.38;5106504;28;20106;-25
2023/07/21 04:31:13;;;;;;;42.00;29.65;;;;;;;24.05;76.73;99750.22;5106297;28;20494;-24
2023/07/21 04:33:40;;;;;;;45.50;33.38;;;;;;;24.08;77.68;99745.28;5106319;28;20568;-23
2023/07/21 04:36:07;;;;;;;39.67;28.40;;;;;;;24.20;75.96;99748.19;5106078;28;20028;-24
2023/07/21 04:38:32;;;;;;;23.98;16.23;;;;;;;24.19;74.85;99752.00;5106023;28;20027;-23
2023/07/21 04:40:58;;;;;;;26.63;16.10;;;;;;;24.17;75.24;99746.06;5106406;28;20058;-24
2023/07/21 04:43:23;;;;;;;18.83;12.82;;;;;;;24.02;76.42;99742.69;5106427;28;20481;-24
2023/07/21 04:45:49;;;;;;;17.67;11.13;;;;;;;24.16;75.89;99744.47;5106194;28;20031;-24
2023/07/21 04:48:14;;;;;;;13.98;9.48;;;;;;;24.32;74.98;99745.63;5106325;28;20035;-23
2023/07/21 04:50:42;;;;;;;14.48;9.85;;;;;;;24.34;74.68;99754.28;5106107;28;20033;-25
2023/07/21 04:53:13;;;;;;;;;;;;;;;24.24;75.35;99743.69;5106749;28;20028;-23
2023/07/21 04:55:38;;;;;;;14.27;10.40;;;;;;;24.38;75.40;99754.47;5104767;28;19930;-23
2023/07/21 04:58:05;;;;;;;13.13;9.70;;;;;;;24.57;74.23;99759.63;5106132;28;20772;-25
2023/07/21 05:00:33;;;;;;;13.63;8.73;;;;;;;24.73;73.06;99766.22;5105675;28;20046;-22
2023/07/21 05:02:59;;;;;;;11.75;8.30;;;;;;;24.72;72.89;99770.03;5105973;28;20031;-21
2023/07/21 05:05:27;;;;;;;12.57;8.52;;;;;;;24.81;72.72;99772.78;5106071;28;20035;-22
2023/07/21 05:07:55;;;;;;;11.90;8.73;;;;;;;24.88;72.37;99772.31;5105972;28;20573;-22
2023/07/21 05:10:20;;;;;;;13.82;8.60;;;;;;;25.01;71.82;99774.88;5105736;28;20038;-22
2023/07/21 05:12:46;;;;;;;11.40;7.90;;;;;;;25.14;71.14;99781.25;5105567;28;20411;-27
2023/07/21 05:15:16;;;;;;;11.65;8.13;;;;;;;25.18;70.87;99776.75;5105758;28;20034;-24
2023/07/21 05:17:41;;;;;;;11.70;8.73;;;;;;;25.53;68.32;99778.63;5105799;27;20032;-24
2023/07/21 05:20:07;;;;;;;12.80;7.75;;;;;;;25.77;67.34;99784.34;5105665;28;20035;-24
2023/07/21 05:22:33;;;;;;;10.32;7.35;;;;;;;25.87;65.07;99783.19;5105304;28;20032;-23
2023/07/21 05:24:59;;;;;;;14.30;7.75;;;;;;;26.03;65.07;99783.44;5105548;28;20020;-23
2023/07/21 05:27:24;;;;;;;14.75;8.10;;;;;;;26.17;64.28;99785.94;5105568;28;20572;-23
2023/07/21 05:29:50;;;;;;;11.52;6.85;;;;;;;26.33;62.94;99789.69;5105530;28;20102;-24
2023/07/21 05:32:15;;;;;;;14.48;7.28;;;;;;;26.41;62.72;99783.38;5105506;28;20019;-27
2023/07/21 05:34:47;;;;;;;11.68;6.82;;;;;;;26.56;62.31;99786.63;5105443;28;20030;-23
2023/07/21 05:37:13;;;;;;;13.75;6.45;;;;;;;26.58;62.91;99793.44;5105500;28;20114;-24
2023/07/21 05:39:39;;;;;;;12.40;6.72;;;;;;;26.76;61.95;99793.28;5105317;28;20099;-24
2023/07/21 05:42:05;;;;;;;16.83;7.22;;;;;;;26.88;60.16;99792.53;5105130;28;20035;-24
2023/07/21 05:44:33;;;;;;;21.75;6.30;;;;;;;27.01;59.26;99799.66;5103613;28;20568;-24
2023/07/21 05:46:59;;;;;;;13.90;6.30;;;;;;;27.17;58.70;99797.09;5104763;28;20059;-24
2023/07/21 05:49:24;;;;;;;13.43;6.35;;;;;;;27.32;57.57;99807.47;5104825;28;20039;-24
2023/07/21 05:51:52;;;;;;;10.70;6.25;;;;;;;27.30;57.52;99795.22;5103716;28;20122;-24
2023/07/21 05:54:18;;;;;;;8.68;6.60;;;;;;;27.22;57.19;99805.13;5105308;28;20031;-24
2023/07/21 05:56:43;;;;;;;12.65;6.93;;;;;;;27.45;58.03;99811.03;5105317;28;20024;-24
2023/07/21 05:59:09;;;;;;;11.82;6.75;;;;;;;27.49;58.17;99813.91;5104667;28;20108;-23
2023/07/21 06:01:36;;;;;;;11.25;6.68;;;;;;;27.67;57.23;99814.50;5104576;28;20485;-25
2023/07/21 06:04:03;;;;;;;10.90;6.97;;;;;;;27.80;55.36;99808.69;5105382;28;20474;-23
2023/07/21 06:06:30;;;;;;;12.52;6.00;;;;;;;27.87;56.72;99818.31;5105802;28;20462;-23
2023/07/21 06:08:56;;;;;;;;;;;;;;;28.17;54.91;99816.16;5106247;28;20123;-23
2023/07/21 06:11:24;;;;;;;10.40;6.55;;;;;;;28.23;53.97;99825.75;5105568;28;19994;-21
2023/07/21 06:13:49;;;;;;;16.08;6.53;;;;;;;28.36;53.48;99819.13;5105954;28;20100;-22
2023/07/21 06:16:17;;;;;;;12.98;6.10;;;;;;;28.14;54.19;99816.84;5105373;28;20447;-22
2023/07/21 06:18:43;;;;;;;23.38;15.43;;;;;;;28.22;53.67;99811.25;5105831;28;20043;-22
2023/07/21 06:21:12;;;;;;;25.15;22.48;;;;;;;28.24;54.23;99813.66;5105812;28;20141;-23
2023/07/21 06:23:38;;;;;;;16.05;6.43;;;;;;;28.36;53.26;99813.63;5105652;28;20028;-22
2023/07/21 06:26:04;;;;;;;9.70;5.78;;;;;;;28.33;53.44;99816.25;5107092;28;20020;-22
2023/07/21 06:28:29;;;;;;;11.32;6.18;;;;;;;28.49;52.13;99810.88;5109000;28;20050;-22
2023/07/21 06:30:55;;;;;;;12.85;6.20;;;;;;;28.30;55.48;99804.03;5109832;28;20492;-22
2023/07/21 06:33:20;;;;;;;10.43;5.22;;;;;;;28.73;54.36;99815.50;5109705;28;20420;-23
2023/07/21 06:35:49;;;;;;;13.82;7.18;;;;;;;28.94;52.62;99818.09;5109731;28;20086;-23
2023/07/21 06:38:14;;;;;;;8.23;5.18;;;;;;;28.97;49.84;99815.47;5109841;28;20033;-22
2023/07/21 06:40:39;;;;;;;11.55;5.93;;;;;;;29.04;49.33;99806.63;5110024;28;20062;-22
2023/07/21 06:43:05;;;;;;;10.13;5.63;;;;;;;29.20;49.46;99817.69;5109617;28;20412;-22
2023/07/21 06:45:30;;;;;;;9.45;5.45;;;;;;;29.42;50.64;99814.38;5109448;28;20023;-22
2023/07/21 06:47:59;;;;;;;11.23;5.00;;;;;;;29.52;50.31;99815.78;5109640;28;20024;-23
2023/07/21 06:50:24;;;;;;;9.30;4.70;;;;;;;29.55;47.81;99811.53;5109323;28;20022;-22
2023/07/21 06:52:50;;;;;;;9.85;4.80;;;;;;;29.64;48.21;99812.94;5109697;28;20035;-26
2023/07/21 06:55:16;;;;;;;11.40;5.07;;;;;;;29.81;46.50;99813.78;5109448;28;20085;-23
2023/07/21 06:57:41;;;;;;;9.43;4.22;;;;;;;30.08;44.40;99816.78;5109397;28;20023;-22
2023/07/21 07:00:08;;;;;;;9.45;5.32;;;;;;;30.08;45.30;99814.03;5108836;27;20555;-22
2023/07/21 07:02:33;;;;;;;9.43;5.03;;;;;;;30.20;46.20;99816.69;5109554;28;20031;-23
2023/07/21 07:04:58;;;;;;;9.52;4.70;;;;;;;30.38;46.85;99809.69;5109109;28;20034;-23
2023/07/21 07:07:27;;;;;;;8.65;5.10;;;;;;;30.36;45.75;99806.50;5109108;28;20034;-22
2023/07/21 07:09:53;;;;;;;7.60;5.03;;;;;;;30.38;45.03;99817.13;5108992;28;20100;-23
2023/07/21 07:12:18;;;;;;;9.27;5.00;;;;;;;30.34;46.06;99808.81;5109450;28;20023;-23
2023/07/21 07:14:46;;;;;;;8.55;5.00;;;;;;;30.46;43.49;99815.31;5109227;28;20024;-22
2023/07/21 07:17:12;;;;;;;8.23;4.70;;;;;;;30.50;45.11;99805.19;5108791;28;20016;-22
2023/07/21 07:19:39;;;;;;;8.02;4.78;;;;;;;30.87;46.72;99802.03;5108780;28;20019;-23
2023/07/21 07:22:08;;;;;;;10.68;4.90;;;;;;;31.03;42.50;99805.53;5109003;28;20626;-23
2023/07/21 07:24:34;;;;;;;9.20;4.55;;;;;;;30.95;44.64;99801.84;5108517;28;20526;-23
2023/07/21 07:26:59;;;;;;;8.20;5.03;;;;;;;31.17;43.17;99800.31;5108974;28;20020;-23
2023/07/21 07:29:27;;;;;;;10.10;5.00;;;;;;;31.48;43.07;99804.03;5108701;28;20504;-23
2023/07/21 07:31:53;;;;;;;9.65;4.43;;;;;;;31.61;41.78;99799.94;5108530;28;20023;-23
2023/07/21 07:34:21;;;;;;;7.05;4.35;;;;;;;31.54;41.92;99804.53;5109143;28;20031;-22
2023/07/21 07:36:51;;;;;;;9.80;4.53;;;;;;;31.85;40.75;99811.75;5108250;28;20039;-23
2023/07/21 07:39:18;;;;;;;30.13;7.18;;;;;;;32.11;40.24;99813.78;5108108;28;20030;-24
2023/07/21 07:41:44;;;;;;;9.57;4.77;;;;;;;32.18;41.57;99816.66;5108656;28;20055;-22
2023/07/21 07:44:11;;;;;;;7.38;4.40;;;;;;;32.22;38.67;99808.41;5108680;28;20106;-23
2023/07/21 07:46:39;;;;;;;11.23;4.65;;;;;;;32.39;38.51;99813.41;5108415;28;20028;-23
2023/07/21 07:49:04;;;;;;;7.18;4.40;;;;;;;32.49;38.82;99811.13;5108500;28;20027;-23
2023/07/21 07:51:30;;;;;;;6.97;4.28;;;;;;;32.51;38.97;99809.63;5108556;28;20026;-23
2023/07/21 07:53:55;;;;;;;8.52;4.38;;;;;;;32.28;38.93;99801.41;5108347;28;20081;-23
2023/07/21 07:56:24;;;;;;;9.07;4.65;;;;;;;32.40;39.29;99803.94;5107967;28;20028;-26
2023/07/21 07:58:52;;;;;;;7.90;4.55;;;;;;;32.46;39.51;99800.88;5107029;28;20016;-23
2023/07/21 08:01:17;;;;;;;8.38;4.28;;;;;;;32.40;38.76;99808.66;5107139;28;20027;-23
2023/07/21 08:03:43;;;;;;;9.68;4.60;;;;;;;32.69;38.49;99812.63;5107210;28;20038;-24
2023/07/21 08:06:15;;;;;;;7.93;4.22;;;;;;;32.60;37.57;99817.66;5106990;28;20107;-23
2023/07/21 08:08:41;;;;;;;10.48;4.32;;;;;;;32.31;37.83;99819.97;5106991;28;20127;-23
2023/07/21 08:11:07;;;;;;;9.50;4.75;;;;;;;32.35;38.51;99812.56;5107203;28;20027;-23
2023/07/21 08:13:33;;;;;;;9.77;4.70;;;;;;;32.69;38.32;99809.88;5106852;27;20033;-23
2023/07/21 08:16:07;;;;;;;10.55;5.18;;;;;;;32.75;37.37;99816.66;5106526;28;20035;-24
2023/07/21 08:18:34;;;;;;;10.50;5.22;;;;;;;32.88;37.81;99808.16;5106704;28;20049;-23
2023/07/21 08:21:16;;;;;;;6.90;4.32;;;;;;;33.23;36.77;99811.31;5106261;28;20023;-23
2023/07/21 08:23:42;;;;;;;12.02;4.07;;;;;;;33.46;34.31;99824.19;5106940;28;20046;-25
2023/07/21 08:26:07;;;;;;;9.02;4.18;;;;;;;33.51;34.49;99821.09;5106493;28;20173;-23
2023/07/21 08:28:32;;;;;;;8.02;4.07;;;;;;;33.48;33.25;99832.09;5106629;28;20818;-23
2023/07/21 08:30:58;;;;;;;7.78;3.85;;;;;;;33.35;33.97;99823.28;5106471;28;20027;-24
2023/07/21 08:33:23;;;;;;;8.43;3.75;;;;;;;33.61;34.46;99825.13;5106288;28;20120;-27
2023/07/21 08:35:51;;;;;;;8.60;3.97;;;;;;;33.60;32.98;99835.38;5106647;28;20161;-24
2023/07/21 08:38:17;;;;;;;9.43;4.20;;;;;;;33.50;34.45;99833.31;5106338;28;20034;-23
2023/07/21 08:40:47;;;;;;;9.25;4.43;;;;;;;33.48;33.70;99826.56;5106501;28;20143;-23
2023/07/21 08:43:13;;;;;;;8.50;4.10;;;;;;;33.58;33.59;99831.41;5106249;28;20081;-24
2023/07/21 08:45:40;;;;;;;11.48;3.90;;;;;;;33.55;34.13;99843.22;5106332;28;20444;-23
2023/07/21 08:48:07;;;;;;;7.38;3.75;;;;;;;33.56;34.91;99829.00;5106240;28;20024;-25
2023/07/21 08:50:35;;;;;;;8.70;4.45;;;;;;;33.72;33.03;99830.78;5105365;28;20507;-24
2023/07/21 08:53:01;;;;;;;9.52;3.55;;;;;;;33.82;32.77;99830.88;5106111;28;20031;-23
2023/07/21 08:55:29;;;;;;;7.70;3.97;;;;;;;33.61;32.96;99833.44;5106093;28;21080;-24
2023/07/21 08:58:00;;;;;;;8.73;4.03;;;;;;;33.84;32.27;99830.50;5105884;28;20044;-23
2023/07/21 09:00:27;;;;;;;6.97;3.50;;;;;;;34.07;31.03;99841.31;5106179;28;20051;-25
2023/07/21 09:03:02;;;;;;;8.57;4.18;;;;;;;33.89;32.72;99824.59;5106028;28;20027;-23
2023/07/21 09:05:28;;;;;;;8.73;4.28;;;;;;;34.06;34.34;99827.88;5105934;28;20179;-23
2023/07/21 09:07:54;;;;;;;8.43;4.50;;;;;;;34.09;33.43;99824.34;5105767;28;20092;-24
2023/07/21 09:10:31;;;;;;;9.57;4.10;;;;;;;33.86;30.51;99830.09;5105642;28;20016;-24
2023/07/21 09:12:58;;;;;;;;;;;;;;;34.31;31.54;99839.16;5106305;28;20024;-23
2023/07/21 09:15:24;;;;;;;9.23;4.10;;;;;;;34.32;31.61;99836.00;5105549;28;20406;-30
2023/07/21 09:17:49;;;;;;;7.32;4.03;;;;;;;34.45;30.51;99838.44;5106053;28;20035;-24
2023/07/21 09:20:15;;;;;;;9.18;4.00;;;;;;;34.72;30.78;99831.50;5105832;28;20457;-23
2023/07/21 09:22:42;;;;;;;8.13;4.45;;;;;;;34.57;31.49;99835.34;5105258;28;20084;-24
2023/07/21 09:25:08;;;;;;;8.10;3.83;;;;;;;35.04;31.25;99825.28;5105695;28;20779;-23
2023/07/21 09:27:35;;;;;;;7.15;4.10;;;;;;;35.64;31.55;99817.50;5105644;28;20023;-24
2023/07/21 09:30:03;;;;;;;7.05;3.85;;;;;;;35.15;30.22;99823.38;5105462;28;20080;-23
2023/07/21 09:32:38;;;;;;;8.10;3.72;;;;;;;34.59;30.87;99806.09;5105352;28;20039;-25
2023/07/21 09:35:05;;;;;;;14.10;4.35;;;;;;;35.33;31.90;99817.88;5105337;28;20027;-23
2023/07/21 09:37:33;;;;;;;8.52;4.82;;;;;;;34.90;30.67;99826.03;5105107;28;20027;-23
2023/07/21 09:40:00;;;;;;;9.35;4.53;;;;;;;34.99;30.88;99815.38;5105070;28;20577;-24
2023/07/21 09:42:28;;;;;;;7.60;3.70;;;;;;;34.77;29.11;99811.72;5105113;28;20032;-24
2023/07/21 09:44:55;;;;;;;6.75;3.97;;;;;;;35.08;30.46;99828.84;5105154;28;20106;-24
2023/07/21 09:47:22;;;;;;;6.22;3.90;;;;;;;35.40;29.17;99819.84;5105427;28;20673;-24
2023/07/21 09:49:49;;;;;;;7.20;4.20;;;;;;;35.42;30.02;99815.50;5105279;28;20049;-24
2023/07/21 09:52:17;;;;;;;10.48;4.13;;;;;;;35.32;29.90;99815.47;5105420;28;21199;-24
2023/07/21 09:54:47;;;;;;;7.22;3.97;;;;;;;35.24;29.59;99803.59;5105158;28;20040;-24
2023/07/21 09:57:23;;;;;;;8.55;4.22;;;;;;;34.88;29.90;99805.44;5104403;28;20031;-24
2023/07/21 09:59:50;;;;;;;8.02;4.28;;;;;;;35.46;30.91;99818.28;5104609;28;20545;-24
2023/07/21 10:02:19;;;;;;;5.47;2.92;;;;;;;35.48;25.47;99820.66;5104470;28;20110;-25
2023/07/21 10:04:47;;;;;;;6.85;2.80;;;;;;;35.29;25.16;99807.94;5105120;28;20027;-24
2023/07/21 10:07:14;;;;;;;7.43;3.30;;;;;;;35.74;25.14;99816.75;5104920;28;20024;-24
2023/07/21 10:09:43;;;;;;;8.43;3.65;;;;;;;35.50;25.63;99813.53;5105020;28;20042;-24
2023/07/21 10:12:10;;;;;;;7.82;4.00;;;;;;;35.48;28.88;99798.47;5104553;28;20027;-24
2023/07/21 10:14:38;;;;;;;11.07;4.28;;;;;;;35.75;28.09;99813.56;5105208;28;20055;-25
2023/07/21 10:17:09;;;;;;;6.40;4.05;;;;;;;35.26;27.82;99800.44;5104588;28;20028;-24
2023/07/21 10:19:39;;;;;;;7.93;3.70;;;;;;;35.57;26.64;99804.41;5104711;28;20032;-23
2023/07/21 10:22:09;;;;;;;9.25;3.55;;;;;;;35.66;27.22;99796.53;5104620;28;20553;-24
2023/07/21 10:24:42;;;;;;;5.68;3.33;;;;;;;35.87;26.50;99787.41;5104352;28;20055;-25
2023/07/21 10:27:08;;;;;;;7.72;3.90;;;;;;;36.00;27.90;99805.25;5104863;28;20023;-24
2023/07/21 10:29:33;;;;;;;6.55;4.25;;;;;;;35.90;27.59;99789.41;5104117;28;20231;-24
2023/07/21 10:32:03;;;;;;;6.25;4.13;;;;;;;36.66;27.69;99798.38;5104488;28;20713;-24
2023/07/21 10:34:36;;;;;;;6.25;4.03;;;;;;;36.61;28.76;99801.53;5104519;28;20028;-25
2023/07/21 10:37:05;;;;;;;7.30;4.10;;;;;;;36.57;26.92;99800.75;5104190;28;20023;-24
2023/07/21 10:39:32;;;;;;;7.53;4.38;;;;;;;36.80;27.31;99801.09;5104529;28;20027;-24
2023/07/21 10:42:05;;;;;;;7.35;4.25;;;;;;;36.41;27.54;99795.63;5104234;28;20036;-24
2023/07/21 10:44:35;;;;;;;7.95;4.30;;;;;;;37.03;28.20;99790.66;5104340;28;20027;-24
2023/07/21 10:47:00;;;;;;;8.60;4.60;;;;;;;36.67;26.73;99799.16;5104611;28;20058;-24
2023/07/21 10:49:26;;;;;;;10.15;4.40;;;;;;;36.44;27.31;99796.84;5104497;28;20094;-24
2023/07/21 10:51:51;;;;;;;7.65;4.32;;;;;;;36.59;27.38;99781.69;5104791;28;20072;-24
2023/07/21 10:54:17;;;;;;;7.20;4.40;;;;;;;36.74;28.01;99788.81;5104272;28;20032;-24
2023/07/21 10:56:45;;;;;;;8.27;5.03;;;;;;;37.08;28.13;99787.44;5104152;28;20114;-24
2023/07/21 10:59:13;;;;;;;7.88;4.95;;;;;;;36.57;28.64;99784.09;5104343;28;20048;-24
2023/07/21 11:01:49;;;;;;;;;;;;;;;36.80;26.90;99773.31;5104458;28;20850;-24
2023/07/21 11:04:17;;;;;;;10.07;4.53;;;;;;;36.61;27.47;99771.75;5104385;28;20524;-25
2023/07/21 11:06:45;;;;;;;9.02;4.97;;;;;;;36.21;27.69;99764.78;5103761;28;20024;-25
2023/07/21 11:09:11;;;;;;;8.75;4.65;;;;;;;36.56;28.18;99763.06;5103559;28;20108;-24
2023/07/21 11:11:47;;;;;;;10.48;4.57;;;;;;;36.80;26.51;99770.53;5104453;28;20035;-25
2023/07/21 11:14:15;;;;;;;7.17;3.90;;;;;;;36.84;27.03;99767.75;5107691;28;20031;-24
2023/07/21 11:16:59;;;;;;;9.48;5.03;;;;;;;37.10;25.29;99766.38;5107813;28;20088;-24
2023/07/21 11:19:27;;;;;;;7.75;4.43;;;;;;;36.97;26.94;99763.28;5108316;28;20034;-24
2023/07/21 11:21:54;;;;;;;7.18;4.38;;;;;;;37.53;26.13;99760.50;5108070;28;20032;-24
2023/07/21 11:24:25;;;;;;;7.00;4.37;;;;;;;37.71;25.57;99748.47;5107792;27;20496;-24
2023/07/21 11:26:56;;;;;;;9.10;5.10;;;;;;;38.10;25.07;99750.09;5108025;28;20028;-24